Herron Island, Washington
Current Conditions -  °F | °C
As of 4:53 PM on Sunday 23 Nov 2014 (Local Time) from KTIW Reporting Station
Few Clouds Few Clouds  
Wind Chill: 50°   Ceiling: Unl
Heat Index: 50°   Visibility: 10mi
Dew Point: 40°   Wind: 7mph
Humidity: 68%   Direction: NA
Pressure: 30.21"   Gusts: NA
Location:  47.264°N, 122.772°W
Report Text: KTIW 240053Z VRB06KT 10SM FEW050 10/04 A3021 RMK AO2 SLP230 T01000044
Loading
Personal Weather Stations






























Interactive Weather Map New forecast layout! Learn more

10-Day Weather Forecast

Advertisements
Track Severe Weather on mobile